sensor_id;sensor_type;location;lat;lon;timestamp;pressure;altitude;pressure_sealevel;temperature;humidity
64086;BME280;50333;47.436;21.390;2023-03-16T00:01:35;100350.50;;;9.48;56.37
64086;BME280;50333;47.436;21.390;2023-03-16T00:04:03;100348.66;;;9.49;56.20
64086;BME280;50333;47.436;21.390;2023-03-16T00:06:32;100355.69;;;9.48;56.22
64086;BME280;50333;47.436;21.390;2023-03-16T00:09:00;100369.50;;;9.49;56.17
64086;BME280;50333;47.436;21.390;2023-03-16T00:11:28;100357.53;;;9.48;56.17
64086;BME280;50333;47.436;21.390;2023-03-16T00:13:56;100362.72;;;9.48;56.02
64086;BME280;50333;47.436;21.390;2023-03-16T00:16:25;100360.38;;;9.46;56.06
64086;BME280;50333;47.436;21.390;2023-03-16T00:18:53;100358.03;;;9.44;56.23
64086;BME280;50333;47.436;21.390;2023-03-16T00:21:21;100372.59;;;9.46;56.03
64086;BME280;50333;47.436;21.390;2023-03-16T00:23:49;100376.25;;;9.44;56.05
64086;BME280;50333;47.436;21.390;2023-03-16T00:26:17;100379.63;;;9.45;55.94
64086;BME280;50333;47.436;21.390;2023-03-16T00:28:45;100377.78;;;9.46;55.89
64086;BME280;50333;47.436;21.390;2023-03-16T00:31:14;100372.87;;;9.44;55.98
64086;BME280;50333;47.436;21.390;2023-03-16T00:33:42;100367.94;;;9.48;55.72
64086;BME280;50333;47.436;21.390;2023-03-16T00:36:11;100384.03;;;9.44;55.86
64086;BME280;50333;47.436;21.390;2023-03-16T00:38:40;100374.66;;;9.43;55.84
64086;BME280;50333;47.436;21.390;2023-03-16T00:41:13;100379.87;;;9.43;55.79
64086;BME280;50333;47.436;21.390;2023-03-16T00:43:42;100383.28;;;9.44;55.72
64086;BME280;50333;47.436;21.390;2023-03-16T00:46:14;100385.06;;;9.43;55.68
64086;BME280;50333;47.436;21.390;2023-03-16T00:48:45;100386.66;;;9.44;55.61
64086;BME280;50333;47.436;21.390;2023-03-16T00:51:16;100377.25;;;9.43;55.55
64086;BME280;50333;47.436;21.390;2023-03-16T00:53:44;100384.81;;;9.45;55.47
64086;BME280;50333;47.436;21.390;2023-03-16T00:56:13;100389.25;;;9.44;55.43
64086;BME280;50333;47.436;21.390;2023-03-16T00:58:42;100389.50;;;9.43;55.50
64086;BME280;50333;47.436;21.390;2023-03-16T01:01:15;100384.53;;;9.41;55.56
64086;BME280;50333;47.436;21.390;2023-03-16T01:03:44;100385.87;;;9.44;55.51
64086;BME280;50333;47.436;21.390;2023-03-16T01:06:14;100385.59;;;9.40;55.60
64086;BME280;50333;47.436;21.390;2023-03-16T01:08:44;100381.94;;;9.41;55.53
64086;BME280;50333;47.436;21.390;2023-03-16T01:11:16;100390.28;;;9.43;55.41
64086;BME280;50333;47.436;21.390;2023-03-16T01:13:46;100392.87;;;9.43;55.38
64086;BME280;50333;47.436;21.390;2023-03-16T01:16:15;100400.94;;;9.42;55.42
64086;BME280;50333;47.436;21.390;2023-03-16T01:18:48;100396.53;;;9.42;55.40
64086;BME280;50333;47.436;21.390;2023-03-16T01:21:17;100397.56;;;9.41;55.36
64086;BME280;50333;47.436;21.390;2023-03-16T01:23:45;100401.72;;;9.42;55.27
64086;BME280;50333;47.436;21.390;2023-03-16T01:26:13;100404.59;;;9.41;55.32
64086;BME280;50333;47.436;21.390;2023-03-16T01:28:46;100409.78;;;9.41;55.33
64086;BME280;50333;47.436;21.390;2023-03-16T01:31:15;100406.94;;;9.42;55.25
64086;BME280;50333;47.436;21.390;2023-03-16T01:33:43;100411.62;;;9.40;55.38
64086;BME280;50333;47.436;21.390;2023-03-16T01:36:16;100415.78;;;9.41;55.25
64086;BME280;50333;47.436;21.390;2023-03-16T01:38:46;100410.03;;;9.39;55.23
64086;BME280;50333;47.436;21.390;2023-03-16T01:41:16;100418.62;;;9.40;55.27
64086;BME280;50333;47.436;21.390;2023-03-16T01:43:44;100415.25;;;9.39;55.22
64086;BME280;50333;47.436;21.390;2023-03-16T01:46:16;100422.03;;;9.40;55.17
64086;BME280;50333;47.436;21.390;2023-03-16T01:59:31;100429.28;;;9.38;55.08
64086;BME280;50333;47.436;21.390;2023-03-16T02:02:00;100435.28;;;9.39;55.11
64086;BME280;50333;47.436;21.390;2023-03-16T02:07:05;100430.31;;;9.37;55.07
64086;BME280;50333;47.436;21.390;2023-03-16T02:09:38;100429.53;;;9.37;55.12
64086;BME280;50333;47.436;21.390;2023-03-16T02:12:10;100429.53;;;9.37;55.15
64086;BME280;50333;47.436;21.390;2023-03-16T02:14:46;100427.19;;;9.35;55.14
64086;BME280;50333;47.436;21.390;2023-03-16T02:17:18;100427.19;;;9.35;55.14
64086;BME280;50333;47.436;21.390;2023-03-16T02:22:48;100419.91;;;9.37;55.06
64086;BME280;50333;47.436;21.390;2023-03-16T02:25:17;100423.78;;;9.35;55.02
64086;BME280;50333;47.436;21.390;2023-03-16T02:28:09;100423.53;;;9.36;55.05
64086;BME280;50333;47.436;21.390;2023-03-16T02:30:42;100426.13;;;9.36;55.05
64086;BME280;50333;47.436;21.390;2023-03-16T02:33:11;100428.75;;;9.36;55.03
64086;BME280;50333;47.436;21.390;2023-03-16T02:35:40;100431.34;;;9.36;55.00
64086;BME280;50333;47.436;21.390;2023-03-16T02:38:08;100428.75;;;9.36;54.99
64086;BME280;50333;47.436;21.390;2023-03-16T02:40:37;100430.81;;;9.34;54.98
64086;BME280;50333;47.436;21.390;2023-03-16T02:43:12;100445.66;;;9.34;55.05
64086;BME280;50333;47.436;21.390;2023-03-16T02:45:46;100443.06;;;9.34;55.02
64086;BME280;50333;47.436;21.390;2023-03-16T02:48:34;100444.06;;;9.33;54.98
64086;BME280;50333;47.436;21.390;2023-03-16T02:51:05;100442.25;;;9.33;54.94
64086;BME280;50333;47.436;21.390;2023-03-16T02:53:33;100449.03;;;9.34;54.79
64086;BME280;50333;47.436;21.390;2023-03-16T02:56:01;100449.03;;;9.34;54.82
64086;BME280;50333;47.436;21.390;2023-03-16T02:58:30;100457.84;;;9.33;54.88
64086;BME280;50333;47.436;21.390;2023-03-16T03:01:00;100466.47;;;9.34;54.75
64086;BME280;50333;47.436;21.390;2023-03-16T03:03:29;100465.91;;;9.32;54.79
64086;BME280;50333;47.436;21.390;2023-03-16T03:06:01;100465.13;;;9.31;54.80
64086;BME280;50333;47.436;21.390;2023-03-16T03:08:30;100474.00;;;9.30;54.84
64086;BME280;50333;47.436;21.390;2023-03-16T03:11:00;100475.53;;;9.31;54.72
64086;BME280;50333;47.436;21.390;2023-03-16T03:13:28;100471.37;;;9.30;54.70
64086;BME280;50333;47.436;21.390;2023-03-16T03:15:56;100478.13;;;9.31;54.61
64086;BME280;50333;47.436;21.390;2023-03-16T03:18:24;100481.28;;;9.33;54.41
64086;BME280;50333;47.436;21.390;2023-03-16T03:20:53;100481.78;;;9.30;54.46
64086;BME280;50333;47.436;21.390;2023-03-16T03:23:21;100479.97;;;9.31;54.52
64086;BME280;50333;47.436;21.390;2023-03-16T03:25:48;100479.19;;;9.30;54.46
64086;BME280;50333;47.436;21.390;2023-03-16T03:28:17;100486.44;;;9.28;54.49
64086;BME280;50333;47.436;21.390;2023-03-16T03:30:45;100488.00;;;9.29;54.42
64086;BME280;50333;47.436;21.390;2023-03-16T03:33:13;100490.63;;;9.29;54.34
64086;BME280;50333;47.436;21.390;2023-03-16T03:35:41;100503.62;;;9.29;54.33
64086;BME280;50333;47.436;21.390;2023-03-16T03:38:09;100507.25;;;9.28;54.31
64086;BME280;50333;47.436;21.390;2023-03-16T03:40:38;100503.88;;;9.28;54.31
64086;BME280;50333;47.436;21.390;2023-03-16T03:43:07;100499.44;;;9.28;54.26
64086;BME280;50333;47.436;21.390;2023-03-16T03:45:36;100508.28;;;9.27;54.27
64086;BME280;50333;47.436;21.390;2023-03-16T03:48:04;100508.28;;;9.27;54.35
64086;BME280;50333;47.436;21.390;2023-03-16T03:50:33;100514.75;;;9.24;54.37
64086;BME280;50333;47.436;21.390;2023-03-16T03:53:02;100511.91;;;9.26;54.38
64086;BME280;50333;47.436;21.390;2023-03-16T03:55:30;100507.19;;;9.23;54.43
64086;BME280;50333;47.436;21.390;2023-03-16T03:58:00;100514.75;;;9.24;54.37
64086;BME280;50333;47.436;21.390;2023-03-16T04:00:28;100510.38;;;9.25;54.36
64086;BME280;50333;47.436;21.390;2023-03-16T04:02:56;100516.59;;;9.24;54.37
64086;BME280;50333;47.436;21.390;2023-03-16T04:05:26;100520.22;;;9.23;54.37
64086;BME280;50333;47.436;21.390;2023-03-16T04:07:54;100521.78;;;9.24;54.38
64086;BME280;50333;47.436;21.390;2023-03-16T04:10:26;100521.25;;;9.22;54.39
64086;BME280;50333;47.436;21.390;2023-03-16T04:12:56;100532.44;;;9.22;54.39
64086;BME280;50333;47.436;21.390;2023-03-16T04:15:25;100532.44;;;9.22;54.37
64086;BME280;50333;47.436;21.390;2023-03-16T04:17:53;100537.63;;;9.22;54.26
64086;BME280;50333;47.436;21.390;2023-03-16T04:20:21;100538.69;;;9.21;54.32
64086;BME280;50333;47.436;21.390;2023-03-16T04:22:50;100543.09;;;9.21;54.29
64086;BME280;50333;47.436;21.390;2023-03-16T04:25:26;100549.88;;;9.22;54.22
64086;BME280;50333;47.436;21.390;2023-03-16T04:27:55;100552.72;;;9.20;54.19
64086;BME280;50333;47.436;21.390;2023-03-16T04:30:23;100550.88;;;9.21;54.22
64086;BME280;50333;47.436;21.390;2023-03-16T04:32:51;100567.31;;;9.21;54.24
64086;BME280;50333;47.436;21.390;2023-03-16T04:35:21;100568.09;;;9.22;54.21
64086;BME280;50333;47.436;21.390;2023-03-16T04:37:50;100566.75;;;9.19;54.22
64086;BME280;50333;47.436;21.390;2023-03-16T04:40:20;100571.16;;;9.19;54.25
64086;BME280;50333;47.436;21.390;2023-03-16T04:42:48;100582.34;;;9.19;54.24
64086;BME280;50333;47.436;21.390;2023-03-16T04:45:18;100586.78;;;9.19;54.26
64086;BME280;50333;47.436;21.390;2023-03-16T04:47:46;100586.78;;;9.19;54.29
64086;BME280;50333;47.436;21.390;2023-03-16T04:50:16;100584.19;;;9.19;54.23
64086;BME280;50333;47.436;21.390;2023-03-16T04:52:47;100588.84;;;9.17;54.26
64086;BME280;50333;47.436;21.390;2023-03-16T04:55:16;100590.66;;;9.16;54.29
64086;BME280;50333;47.436;21.390;2023-03-16T04:57:44;100589.63;;;9.17;54.27
64086;BME280;50333;47.436;21.390;2023-03-16T05:00:13;100590.41;;;9.18;54.16
64086;BME280;50333;47.436;21.390;2023-03-16T05:02:50;100600.81;;;9.18;54.22
64086;BME280;50333;47.436;21.390;2023-03-16T05:05:21;100606.03;;;9.18;54.21
64086;BME280;50333;47.436;21.390;2023-03-16T05:07:49;100608.62;;;9.18;54.19
64086;BME280;50333;47.436;21.390;2023-03-16T05:10:22;100616.69;;;9.16;54.14
64086;BME280;50333;47.436;21.390;2023-03-16T05:12:51;100617.44;;;9.17;54.15
64086;BME280;50333;47.436;21.390;2023-03-16T05:15:19;100613.84;;;9.18;54.09
64086;BME280;50333;47.436;21.390;2023-03-16T05:17:49;100614.62;;;9.18;54.01
64086;BME280;50333;47.436;21.390;2023-03-16T05:20:18;100608.62;;;9.18;53.94
64086;BME280;50333;47.436;21.390;2023-03-16T05:22:49;100619.56;;;9.20;53.89
64086;BME280;50333;47.436;21.390;2023-03-16T05:25:19;100623.19;;;9.19;53.99
64086;BME280;50333;47.436;21.390;2023-03-16T05:27:50;100626.56;;;9.19;53.85
64086;BME280;50333;47.436;21.390;2023-03-16T05:30:19;100630.22;;;9.18;53.86
64086;BME280;50333;47.436;21.390;2023-03-16T05:32:47;100632.06;;;9.23;53.83
64086;BME280;50333;47.436;21.390;2023-03-16T05:35:15;100629.47;;;9.23;53.84
64086;BME280;50333;47.436;21.390;2023-03-16T05:37:45;100634.66;;;9.23;53.84
64086;BME280;50333;47.436;21.390;2023-03-16T05:40:14;100630.03;;;9.25;53.85
64086;BME280;50333;47.436;21.390;2023-03-16T05:42:47;100632.06;;;9.23;53.80
64086;BME280;50333;47.436;21.390;2023-03-16T05:45:17;100640.69;;;9.23;53.91
64086;BME280;50333;47.436;21.390;2023-03-16T05:47:45;100645.94;;;9.29;53.80
64086;BME280;50333;47.436;21.390;2023-03-16T05:50:15;100653.97;;;9.27;53.82
64086;BME280;50333;47.436;21.390;2023-03-16T05:52:44;100657.34;;;9.28;53.84
64086;BME280;50333;47.436;21.390;2023-03-16T05:55:16;100658.94;;;9.29;53.79
64086;BME280;50333;47.436;21.390;2023-03-16T05:57:46;100662.84;;;9.31;53.72
64086;BME280;50333;47.436;21.390;2023-03-16T06:00:16;100661.84;;;9.32;53.60
64086;BME280;50333;47.436;21.390;2023-03-16T06:02:49;100678.47;;;9.31;53.54
64086;BME280;50333;47.436;21.390;2023-03-16T06:05:19;100670.66;;;9.31;53.55
64086;BME280;50333;47.436;21.390;2023-03-16T06:07:52;100674.84;;;9.32;53.48
64086;BME280;50333;47.436;21.390;2023-03-16T06:10:20;100681.06;;;9.31;53.46
64086;BME280;50333;47.436;21.390;2023-03-16T06:12:48;100691.00;;;9.34;53.37
64086;BME280;50333;47.436;21.390;2023-03-16T06:15:18;100688.94;;;9.36;53.20
64086;BME280;50333;47.436;21.390;2023-03-16T06:17:46;100679.81;;;9.34;53.34
64086;BME280;50333;47.436;21.390;2023-03-16T06:20:15;100695.47;;;9.39;53.12
64086;BME280;50333;47.436;21.390;2023-03-16T06:22:44;100705.88;;;9.39;53.09
64086;BME280;50333;47.436;21.390;2023-03-16T06:25:13;100707.44;;;9.40;53.01
64086;BME280;50333;47.436;21.390;2023-03-16T06:27:41;100706.19;;;9.42;52.86
64086;BME280;50333;47.436;21.390;2023-03-16T06:30:12;100710.34;;;9.43;52.86
64086;BME280;50333;47.436;21.390;2023-03-16T06:32:41;100710.09;;;9.45;52.83
64086;BME280;50333;47.436;21.390;2023-03-16T06:35:09;100715.84;;;9.47;52.70
64086;BME280;50333;47.436;21.390;2023-03-16T06:37:38;100721.63;;;9.49;52.67
64086;BME280;50333;47.436;21.390;2023-03-16T06:40:08;100721.09;;;9.52;52.59
64086;BME280;50333;47.436;21.390;2023-03-16T06:42:36;100718.50;;;9.52;52.59
64086;BME280;50333;47.436;21.390;2023-03-16T06:45:06;100734.41;;;9.56;52.43
64086;BME280;50333;47.436;21.390;2023-03-16T06:47:34;100738.13;;;9.60;52.35
64086;BME280;50333;47.436;21.390;2023-03-16T06:50:02;100741.50;;;9.60;52.44
64086;BME280;50333;47.436;21.390;2023-03-16T06:52:31;100745.75;;;9.67;52.13
64086;BME280;50333;47.436;21.390;2023-03-16T06:54:59;100743.97;;;9.72;51.95
64086;BME280;50333;47.436;21.390;2023-03-16T06:57:28;100751.84;;;9.77;51.90
64086;BME280;50333;47.436;21.390;2023-03-16T06:59:56;100762.31;;;9.82;51.70
64086;BME280;50333;47.436;21.390;2023-03-16T07:02:25;100752.41;;;9.85;51.53
64086;BME280;50333;47.436;21.390;2023-03-16T07:04:53;100753.97;;;9.86;51.70
64086;BME280;50333;47.436;21.390;2023-03-16T07:07:22;100758.22;;;9.92;51.46
64086;BME280;50333;47.436;21.390;2023-03-16T07:09:51;100756.97;;;9.99;51.11
64086;BME280;50333;47.436;21.390;2023-03-16T07:12:19;100762.47;;;10.03;51.09
64086;BME280;50333;47.436;21.390;2023-03-16T07:14:47;100772.16;;;10.08;50.81
64086;BME280;50333;47.436;21.390;2023-03-16T07:17:20;100780.75;;;10.08;50.83
64086;BME280;50333;47.436;21.390;2023-03-16T07:19:48;100772.69;;;10.10;50.62
64086;BME280;50333;47.436;21.390;2023-03-16T07:22:16;100776.88;;;10.11;50.65
64086;BME280;50333;47.436;21.390;2023-03-16T07:24:44;100782.97;;;10.22;50.32
64086;BME280;50333;47.436;21.390;2023-03-16T07:27:13;100782.69;;;10.18;50.47
64086;BME280;50333;47.436;21.390;2023-03-16T07:29:42;100792.41;;;10.28;50.14
64086;BME280;50333;47.436;21.390;2023-03-16T07:32:10;100789.87;;;10.33;49.68
64086;BME280;50333;47.436;21.390;2023-03-16T07:34:38;100788.84;;;10.34;49.70
64086;BME280;50333;47.436;21.390;2023-03-16T07:37:07;100790.16;;;10.36;49.79
64086;BME280;50333;47.436;21.390;2023-03-16T07:39:36;100787.59;;;10.42;49.49
64086;BME280;50333;47.436;21.390;2023-03-16T07:42:05;100789.69;;;10.45;49.19
64086;BME280;50333;47.436;21.390;2023-03-16T07:44:36;100800.06;;;10.40;49.37
64086;BME280;50333;47.436;21.390;2023-03-16T07:47:04;100800.94;;;10.45;49.04
64086;BME280;50333;47.436;21.390;2023-03-16T07:49:33;100798.91;;;10.52;48.89
64086;BME280;50333;47.436;21.390;2023-03-16T07:52:01;100793.88;;;10.46;48.77
64086;BME280;50333;47.436;21.390;2023-03-16T07:54:31;100799.91;;;10.51;48.81
64086;BME280;50333;47.436;21.390;2023-03-16T07:56:59;100795.75;;;10.50;48.99
64086;BME280;50333;47.436;21.390;2023-03-16T07:59:28;100800.16;;;10.50;48.97
64086;BME280;50333;47.436;21.390;2023-03-16T08:01:57;100795.84;;;10.61;48.61
64086;BME280;50333;47.436;21.390;2023-03-16T08:04:25;100802.66;;;10.67;48.31
64086;BME280;50333;47.436;21.390;2023-03-16T08:06:53;100804.25;;;10.73;48.27
64086;BME280;50333;47.436;21.390;2023-03-16T08:09:28;100809.44;;;10.68;48.24
64086;BME280;50333;47.436;21.390;2023-03-16T08:11:56;100807.63;;;10.68;48.22
64086;BME280;50333;47.436;21.390;2023-03-16T08:14:24;100809.81;;;10.82;47.74
64086;BME280;50333;47.436;21.390;2023-03-16T08:16:52;100811.03;;;10.74;48.04
64086;BME280;50333;47.436;21.390;2023-03-16T08:19:22;100817.09;;;10.85;47.84
64086;BME280;50333;47.436;21.390;2023-03-16T08:21:52;100814.28;;;10.91;47.31
64086;BME280;50333;47.436;21.390;2023-03-16T08:24:29;100808.88;;;11.03;47.23
64086;BME280;50333;47.436;21.390;2023-03-16T08:26:59;100811.78;;;11.12;46.87
64086;BME280;50333;47.436;21.390;2023-03-16T08:29:29;100832.47;;;11.19;46.50
64086;BME280;50333;47.436;21.390;2023-03-16T08:31:57;100823.34;;;11.26;46.05
64086;BME280;50333;47.436;21.390;2023-03-16T08:34:26;100817.16;;;11.38;45.88
64086;BME280;50333;47.436;21.390;2023-03-16T08:36:55;100819.81;;;11.48;45.73
64086;BME280;50333;47.436;21.390;2023-03-16T08:39:24;100814.50;;;11.96;45.20
64086;BME280;50333;47.436;21.390;2023-03-16T08:41:52;100830.44;;;12.97;43.28
64086;BME280;50333;47.436;21.390;2023-03-16T08:44:22;100830.31;;;13.53;42.07
64086;BME280;50333;47.436;21.390;2023-03-16T08:46:53;100826.09;;;14.42;40.07
64086;BME280;50333;47.436;21.390;2023-03-16T08:49:21;100832.78;;;14.93;38.91
64086;BME280;50333;47.436;21.390;2023-03-16T08:51:51;100830.19;;;15.36;38.04
64086;BME280;50333;47.436;21.390;2023-03-16T08:54:21;100835.75;;;15.77;36.99
64086;BME280;50333;47.436;21.390;2023-03-16T08:56:49;100824.31;;;16.06;36.33
64086;BME280;50333;47.436;21.390;2023-03-16T08:59:18;100837.53;;;16.20;36.38
64086;BME280;50333;47.436;21.390;2023-03-16T09:01:57;100841.03;;;16.48;35.59
64086;BME280;50333;47.436;21.390;2023-03-16T09:04:25;100844.94;;;16.98;34.88
64086;BME280;50333;47.436;21.390;2023-03-16T09:06:55;100834.50;;;17.48;33.99
64086;BME280;50333;47.436;21.390;2023-03-16T09:09:36;100844.03;;;17.71;33.43
64086;BME280;50333;47.436;21.390;2023-03-16T09:12:04;100854.66;;;17.80;33.29
64086;BME280;50333;47.436;21.390;2023-03-16T09:14:33;100843.56;;;17.69;33.31
64086;BME280;50333;47.436;21.390;2023-03-16T09:17:05;100861.72;;;17.43;33.62
64086;BME280;50333;47.436;21.390;2023-03-16T09:19:34;100860.56;;;16.94;34.33
64086;BME280;50333;47.436;21.390;2023-03-16T09:22:21;100856.94;;;16.24;35.28
64086;BME280;50333;47.436;21.390;2023-03-16T09:24:49;100874.63;;;15.80;36.25
64086;BME280;50333;47.436;21.390;2023-03-16T09:27:18;100863.75;;;15.44;36.87
64086;BME280;50333;47.436;21.390;2023-03-16T09:29:47;100865.88;;;15.18;37.36
64086;BME280;50333;47.436;21.390;2023-03-16T09:32:16;100866.28;;;15.01;37.74
64086;BME280;50333;47.436;21.390;2023-03-16T09:34:44;100881.94;;;14.82;38.09
64086;BME280;50333;47.436;21.390;2023-03-16T09:37:12;100876.03;;;15.00;37.95
64086;BME280;50333;47.436;21.390;2023-03-16T09:39:41;100871.19;;;15.37;37.39
64086;BME280;50333;47.436;21.390;2023-03-16T09:42:18;100874.69;;;15.75;36.85
64086;BME280;50333;47.436;21.390;2023-03-16T09:44:53;100883.09;;;16.15;35.98
64086;BME280;50333;47.436;21.390;2023-03-16T09:47:28;100871.09;;;16.61;35.28
64086;BME280;50333;47.436;21.390;2023-03-16T09:50:00;100874.41;;;17.00;34.55
64086;BME280;50333;47.436;21.390;2023-03-16T09:55:31;100878.91;;;17.68;33.42
64086;BME280;50333;47.436;21.390;2023-03-16T09:58:16;100886.12;;;17.77;33.18
64086;BME280;50333;47.436;21.390;2023-03-16T10:00:58;100889.44;;;17.55;33.14
64086;BME280;50333;47.436;21.390;2023-03-16T10:06:08;100888.47;;;17.64;32.96
64086;BME280;50333;47.436;21.390;2023-03-16T10:08:43;100888.97;;;17.39;33.24
64086;BME280;50333;47.436;21.390;2023-03-16T10:14:24;100900.16;;;17.03;33.83
64086;BME280;50333;47.436;21.390;2023-03-16T10:16:56;100899.38;;;16.88;34.23
64086;BME280;50333;47.436;21.390;2023-03-16T10:22:25;100894.37;;;16.35;35.09
64086;BME280;50333;47.436;21.390;2023-03-16T10:28:22;100900.72;;;15.96;35.93
64086;BME280;50333;47.436;21.390;2023-03-16T10:30:54;100893.34;;;15.74;36.18
64086;BME280;50333;47.436;21.390;2023-03-16T10:33:28;100912.25;;;15.52;36.63
64086;BME280;50333;47.436;21.390;2023-03-16T10:43:53;100914.22;;;14.87;38.16
64086;BME280;50333;47.436;21.390;2023-03-16T10:46:26;100913.59;;;14.66;38.47
64086;BME280;50333;47.436;21.390;2023-03-16T10:48:57;100911.28;;;14.55;38.75
64086;BME280;50333;47.436;21.390;2023-03-16T10:51:34;100916.59;;;14.44;38.95
64086;BME280;50333;47.436;21.390;2023-03-16T10:54:08;100924.75;;;14.38;39.18
64086;BME280;50333;47.436;21.390;2023-03-16T10:56:41;100929.53;;;14.30;39.38
64086;BME280;50333;47.436;21.390;2023-03-16T10:59:27;100927.97;;;14.24;39.47
64086;BME280;50333;47.436;21.390;2023-03-16T11:01:56;100923.00;;;14.23;39.57
64086;BME280;50333;47.436;21.390;2023-03-16T11:04:30;100915.47;;;14.16;39.67
64086;BME280;50333;47.436;21.390;2023-03-16T11:06:59;100927.56;;;14.02;39.91
64086;BME280;50333;47.436;21.390;2023-03-16T11:09:33;100923.66;;;14.04;39.88
64086;BME280;50333;47.436;21.390;2023-03-16T11:12:26;100917.63;;;14.04;40.04
64086;BME280;50333;47.436;21.390;2023-03-16T11:15:08;100928.66;;;13.95;40.09
64086;BME280;50333;47.436;21.390;2023-03-16T11:17:52;100923.19;;;13.87;40.27
64086;BME280;50333;47.436;21.390;2023-03-16T11:20:23;100922.47;;;13.76;40.50
64086;BME280;50333;47.436;21.390;2023-03-16T11:22:53;100916.44;;;13.65;40.72
64086;BME280;50333;47.436;21.390;2023-03-16T11:30:52;100930.91;;;13.47;41.21
64086;BME280;50333;47.436;21.390;2023-03-16T11:33:24;100927.75;;;13.55;41.17
64086;BME280;50333;47.436;21.390;2023-03-16T11:36:34;100927.25;;;13.48;41.41
64086;BME280;50333;47.436;21.390;2023-03-16T11:39:09;100925.66;;;13.47;41.52
64086;BME280;50333;47.436;21.390;2023-03-16T11:44:32;100923.09;;;13.32;41.78
64086;BME280;50333;47.436;21.390;2023-03-16T11:47:05;100923.06;;;13.27;41.96
64086;BME280;50333;47.436;21.390;2023-03-16T11:50:04;100923.06;;;13.21;42.02
64086;BME280;50333;47.436;21.390;2023-03-16T12:06:26;100916.56;;;13.09;42.59
64086;BME280;50333;47.436;21.390;2023-03-16T12:09:27;100919.41;;;13.12;42.49
64086;BME280;50333;47.436;21.390;2023-03-16T12:15:34;100913.16;;;13.08;42.65
64086;BME280;50333;47.436;21.390;2023-03-16T12:18:13;100925.19;;;13.04;42.84
64086;BME280;50333;47.436;21.390;2023-03-16T12:20:57;100920.50;;;13.01;42.89
64086;BME280;50333;47.436;21.390;2023-03-16T12:26:10;100918.66;;;13.07;42.85
64086;BME280;50333;47.436;21.390;2023-03-16T12:28:40;100922.03;;;13.07;42.85
64086;BME280;50333;47.436;21.390;2023-03-16T12:31:23;100915.22;;;13.06;42.82
64086;BME280;50333;47.436;21.390;2023-03-16T12:34:18;100917.31;;;13.09;42.82
64086;BME280;50333;47.436;21.390;2023-03-16T12:45:51;100930.66;;;13.13;42.56
64086;BME280;50333;47.436;21.390;2023-03-16T12:48:31;100927.28;;;13.12;42.62
64086;BME280;50333;47.436;21.390;2023-03-16T12:51:02;100912.34;;;13.13;42.55
64086;BME280;50333;47.436;21.390;2023-03-16T12:56:29;100938.50;;;13.28;42.39
64086;BME280;50333;47.436;21.390;2023-03-16T12:59:01;100938.25;;;13.19;42.46
64086;BME280;50333;47.436;21.390;2023-03-16T13:01:41;100944.00;;;13.21;42.43
64086;BME280;50333;47.436;21.390;2023-03-16T13:04:16;100935.63;;;13.30;42.28
64086;BME280;50333;47.436;21.390;2023-03-16T13:06:50;100947.69;;;13.31;42.20
64086;BME280;50333;47.436;21.390;2023-03-16T13:09:28;100946.09;;;13.30;42.16
64086;BME280;50333;47.436;21.390;2023-03-16T13:11:59;100949.75;;;13.29;42.26
64086;BME280;50333;47.436;21.390;2023-03-16T13:20:32;100963.41;;;13.20;42.33
64086;BME280;50333;47.436;21.390;2023-03-16T13:22:48;100962.59;;;13.25;42.18
64086;BME280;50333;47.436;21.390;2023-03-16T13:25:23;100963.94;;;13.17;42.29
64086;BME280;50333;47.436;21.390;2023-03-16T13:28:04;100962.87;;;13.13;42.24
64086;BME280;50333;47.436;21.390;2023-03-16T13:30:33;100968.63;;;13.15;42.24
64086;BME280;50333;47.436;21.390;2023-03-16T13:33:16;100971.25;;;13.15;42.27
64086;BME280;50333;47.436;21.390;2023-03-16T13:35:48;100974.91;;;13.14;42.31
64086;BME280;50333;47.436;21.390;2023-03-16T13:38:18;100977.28;;;13.16;42.18
64086;BME280;50333;47.436;21.390;2023-03-16T13:40:50;100973.88;;;13.15;42.25
64086;BME280;50333;47.436;21.390;2023-03-16T13:43:28;100977.53;;;13.14;42.15
64086;BME280;50333;47.436;21.390;2023-03-16T13:45:56;100977.53;;;13.09;42.19
64086;BME280;50333;47.436;21.390;2023-03-16T13:48:25;100972.03;;;13.06;42.18
64086;BME280;50333;47.436;21.390;2023-03-16T13:50:54;100972.03;;;13.00;42.18
64086;BME280;50333;47.436;21.390;2023-03-16T13:53:29;100973.34;;;12.93;42.30
64086;BME280;50333;47.436;21.390;2023-03-16T13:55:59;100974.66;;;13.00;42.26
64086;BME280;50333;47.436;21.390;2023-03-16T13:58:34;100978.59;;;13.03;42.21
64086;BME280;50333;47.436;21.390;2023-03-16T14:03:46;100984.88;;;13.28;41.80
64086;BME280;50333;47.436;21.390;2023-03-16T14:06:23;100981.22;;;13.39;41.49
64086;BME280;50333;47.436;21.390;2023-03-16T14:08:55;100983.81;;;13.49;41.28
64086;BME280;50333;47.436;21.390;2023-03-16T14:11:26;100994.28;;;13.54;41.04
64086;BME280;50333;47.436;21.390;2023-03-16T14:13:57;100989.84;;;13.50;41.08
64086;BME280;50333;47.436;21.390;2023-03-16T14:16:27;100988.81;;;13.41;41.16
64086;BME280;50333;47.436;21.390;2023-03-16T14:19:00;100984.38;;;13.36;41.15
64086;BME280;50333;47.436;21.390;2023-03-16T14:21:31;100981.19;;;13.29;41.23
64086;BME280;50333;47.436;21.390;2023-03-16T14:24:05;101001.09;;;13.25;41.27
64086;BME280;50333;47.436;21.390;2023-03-16T14:26:44;100988.00;;;13.14;41.47
64086;BME280;50333;47.436;21.390;2023-03-16T14:29:15;100995.06;;;13.14;41.43
64086;BME280;50333;47.436;21.390;2023-03-16T14:31:45;101009.47;;;13.01;41.80
64086;BME280;50333;47.436;21.390;2023-03-16T14:34:30;101005.28;;;12.95;41.91